OCN50 EDDF-KPHL
Flight info
| Callsign | OCN50 |
|---|---|
| Flight time | N/A |
| Altitude | 36000 |
| Route | OBOKA5G/25C OBOKA Z28 DIBIR DCT BUDIP DCT RAVLO Y70 OTBED L60 PENIL M144 BAGSO DCT MALOT/M082F380 NATE RIKAL/N0467F380 N572A TOPPS/N0460F400 DCT LARIE Q220 RIFLE Q439 BRIGS JIIMS4 |
| Aircraft | A333/H-SDE3GHIJ2J3J5M1RVWXY/LB2D1 |
Departure
| Time | N/A |
|---|---|
| Airport | Frankfurt Main Airport (EDDF) |
Arrival
| Time | 2026-05-05 19:56 |
|---|---|
| Airport | Philadelphia International Airport (KPHL) |
| Time | Latitude | Longitude | Altitude | Speed | Heading |
|---|---|---|---|---|---|
| 2026-05-05 19:06 | 42.02954 | -69.85459 | 37933 ft | 452 kts | 207° |
| 2026-05-05 19:06 | 41.97208 | -69.88913 | 37941 ft | 452 kts | 207° |
| 2026-05-05 19:07 | 41.92430 | -69.91780 | 37968 ft | 451 kts | 207° |
| 2026-05-05 19:07 | 41.88595 | -69.94077 | 37720 ft | 450 kts | 207° |
| 2026-05-05 19:07 | 41.85800 | -69.95963 | 37449 ft | 449 kts | 213° |
| 2026-05-05 19:08 | 41.83257 | -69.98304 | 37159 ft | 448 kts | 221° |
| 2026-05-05 19:08 | 41.81002 | -70.01174 | 36901 ft | 448 kts | 230° |
| 2026-05-05 19:08 | 41.79091 | -70.04484 | 36634 ft | 448 kts | 235° |
| 2026-05-05 19:08 | 41.77325 | -70.07940 | 36366 ft | 450 kts | 237° |
| 2026-05-05 19:09 | 41.75619 | -70.11465 | 36100 ft | 451 kts | 238° |
| 2026-05-05 19:09 | 41.73936 | -70.15020 | 35823 ft | 453 kts | 238° |
| 2026-05-05 19:09 | 41.72819 | -70.17390 | 35658 ft | 453 kts | 238° |
| 2026-05-05 19:09 | 41.71129 | -70.20960 | 35415 ft | 455 kts | 238° |
| 2026-05-05 19:10 | 41.68864 | -70.25701 | 35075 ft | 456 kts | 238° |
| 2026-05-05 19:10 | 41.67700 | -70.28121 | 34906 ft | 457 kts | 238° |
| 2026-05-05 19:10 | 41.65990 | -70.31657 | 34682 ft | 458 kts | 237° |
| 2026-05-05 19:10 | 41.64242 | -70.35257 | 34463 ft | 460 kts | 237° |
| 2026-05-05 19:11 | 41.62492 | -70.38854 | 34225 ft | 461 kts | 237° |
| 2026-05-05 19:11 | 41.60742 | -70.42444 | 34009 ft | 462 kts | 237° |
| 2026-05-05 19:11 | 41.57244 | -70.49610 | 33970 ft | 463 kts | 237° |
| 2026-05-05 19:12 | 41.53717 | -70.56823 | 33964 ft | 463 kts | 237° |
| 2026-05-05 19:12 | 41.50198 | -70.64003 | 33969 ft | 463 kts | 237° |
| 2026-05-05 19:13 | 41.46663 | -70.71198 | 33971 ft | 463 kts | 237° |
| 2026-05-05 19:13 | 41.43126 | -70.78382 | 33970 ft | 463 kts | 237° |
| 2026-05-05 19:14 | 41.39845 | -70.85787 | 33974 ft | 462 kts | 245° |
| 2026-05-05 19:14 | 41.37233 | -70.93570 | 33964 ft | 462 kts | 247° |
| 2026-05-05 19:15 | 41.34731 | -71.01466 | 33958 ft | 462 kts | 248° |
| 2026-05-05 19:15 | 41.32257 | -71.09313 | 33953 ft | 462 kts | 248° |
| 2026-05-05 19:16 | 41.29747 | -71.17208 | 33947 ft | 462 kts | 248° |
| 2026-05-05 19:16 | 41.27223 | -71.25086 | 33954 ft | 462 kts | 247° |
| 2026-05-05 19:17 | 41.24714 | -71.32901 | 33953 ft | 462 kts | 247° |
| 2026-05-05 19:17 | 41.22187 | -71.40766 | 33950 ft | 462 kts | 247° |
| 2026-05-05 19:18 | 41.19657 | -71.48619 | 33952 ft | 462 kts | 247° |
| 2026-05-05 19:18 | 41.17133 | -71.56430 | 33941 ft | 461 kts | 247° |
| 2026-05-05 19:19 | 41.15862 | -71.60321 | 33344 ft | 460 kts | 247° |
| 2026-05-05 19:19 | 41.14572 | -71.64227 | 32471 ft | 462 kts | 247° |
| 2026-05-05 19:19 | 41.13267 | -71.68153 | 31628 ft | 464 kts | 247° |
| 2026-05-05 19:19 | 41.11958 | -71.72080 | 30731 ft | 467 kts | 248° |
| 2026-05-05 19:20 | 41.10634 | -71.76047 | 29841 ft | 470 kts | 248° |
| 2026-05-05 19:20 | 41.09333 | -71.79941 | 29089 ft | 466 kts | 248° |
| 2026-05-05 19:20 | 41.08022 | -71.83862 | 28430 ft | 462 kts | 248° |
| 2026-05-05 19:20 | 41.06725 | -71.87739 | 27829 ft | 456 kts | 247° |
| 2026-05-05 19:21 | 41.05444 | -71.91565 | 27247 ft | 452 kts | 248° |
| 2026-05-05 19:21 | 41.04173 | -71.95355 | 26681 ft | 447 kts | 248° |
| 2026-05-05 19:21 | 41.02905 | -71.99095 | 26124 ft | 443 kts | 247° |
| 2026-05-05 19:21 | 41.01624 | -72.02780 | 25581 ft | 438 kts | 246° |
| 2026-05-05 19:22 | 41.00358 | -72.06373 | 25095 ft | 433 kts | 246° |
| 2026-05-05 19:22 | 40.99085 | -72.09963 | 24608 ft | 429 kts | 246° |
| 2026-05-05 19:22 | 40.97820 | -72.13527 | 24138 ft | 425 kts | 245° |
| 2026-05-05 19:22 | 40.96565 | -72.17062 | 23672 ft | 421 kts | 245° |
| 2026-05-05 19:23 | 40.95325 | -72.20555 | 23149 ft | 417 kts | 245° |
| 2026-05-05 19:23 | 40.94092 | -72.24030 | 22625 ft | 414 kts | 245° |
| 2026-05-05 19:23 | 40.92839 | -72.27439 | 22080 ft | 411 kts | 243° |
| 2026-05-05 19:23 | 40.91380 | -72.30616 | 21568 ft | 409 kts | 236° |
| 2026-05-05 19:24 | 40.89618 | -72.33563 | 21046 ft | 407 kts | 230° |
| 2026-05-05 19:24 | 40.87705 | -72.36315 | 20555 ft | 405 kts | 228° |
| 2026-05-05 19:24 | 40.85737 | -72.38963 | 20120 ft | 402 kts | 227° |
| 2026-05-05 19:24 | 40.83743 | -72.41552 | 19977 ft | 400 kts | 226° |
| 2026-05-05 19:25 | 40.81763 | -72.44092 | 19960 ft | 401 kts | 226° |
| 2026-05-05 19:25 | 40.79690 | -72.46556 | 19962 ft | 402 kts | 223° |
| 2026-05-05 19:25 | 40.77559 | -72.48944 | 19962 ft | 402 kts | 222° |
| 2026-05-05 19:25 | 40.75404 | -72.51305 | 19965 ft | 402 kts | 221° |
| 2026-05-05 19:26 | 40.73237 | -72.53652 | 19964 ft | 402 kts | 221° |
| 2026-05-05 19:26 | 40.71065 | -72.55992 | 19961 ft | 402 kts | 221° |
| 2026-05-05 19:26 | 40.68977 | -72.58389 | 19965 ft | 401 kts | 225° |
| 2026-05-05 19:26 | 40.66940 | -72.60921 | 19962 ft | 401 kts | 226° |
| 2026-05-05 19:27 | 40.64934 | -72.63486 | 19964 ft | 401 kts | 226° |
| 2026-05-05 19:27 | 40.62944 | -72.66078 | 19965 ft | 402 kts | 227° |
| 2026-05-05 19:27 | 40.60987 | -72.68645 | 19957 ft | 402 kts | 227° |
| 2026-05-05 19:27 | 40.59007 | -72.71247 | 19958 ft | 402 kts | 227° |
| 2026-05-05 19:28 | 40.57022 | -72.73851 | 19955 ft | 402 kts | 227° |
| 2026-05-05 19:28 | 40.55040 | -72.76447 | 19961 ft | 402 kts | 227° |
| 2026-05-05 19:28 | 40.53052 | -72.79042 | 19960 ft | 402 kts | 226° |
| 2026-05-05 19:28 | 40.51033 | -72.81600 | 19954 ft | 403 kts | 225° |
| 2026-05-05 19:29 | 40.49006 | -72.84081 | 19957 ft | 403 kts | 225° |
| 2026-05-05 19:29 | 40.46938 | -72.86569 | 19950 ft | 403 kts | 224° |
| 2026-05-05 19:29 | 40.44861 | -72.89052 | 19958 ft | 403 kts | 224° |
| 2026-05-05 19:29 | 40.42783 | -72.91535 | 19953 ft | 403 kts | 224° |
| 2026-05-05 19:30 | 40.40710 | -72.94016 | 19959 ft | 403 kts | 224° |
| 2026-05-05 19:30 | 40.38636 | -72.96502 | 19947 ft | 403 kts | 225° |
| 2026-05-05 19:30 | 40.36568 | -72.98985 | 19942 ft | 403 kts | 225° |
| 2026-05-05 19:30 | 40.34492 | -73.01478 | 19941 ft | 403 kts | 225° |
| 2026-05-05 19:31 | 40.32446 | -73.03934 | 19946 ft | 403 kts | 225° |
| 2026-05-05 19:31 | 40.30350 | -73.06450 | 19934 ft | 403 kts | 225° |
| 2026-05-05 19:31 | 40.28305 | -73.08902 | 19949 ft | 404 kts | 225° |
| 2026-05-05 19:31 | 40.26226 | -73.11392 | 19942 ft | 404 kts | 225° |
| 2026-05-05 19:32 | 40.24152 | -73.13875 | 19948 ft | 404 kts | 225° |
| 2026-05-05 19:32 | 40.22069 | -73.16367 | 19947 ft | 404 kts | 225° |
| 2026-05-05 19:32 | 40.19993 | -73.18848 | 19943 ft | 404 kts | 225° |
| 2026-05-05 19:32 | 40.17914 | -73.21330 | 19951 ft | 404 kts | 225° |
| 2026-05-05 19:33 | 40.15865 | -73.23776 | 19943 ft | 404 kts | 225° |
| 2026-05-05 19:33 | 40.13781 | -73.26261 | 19942 ft | 404 kts | 225° |
| 2026-05-05 19:33 | 40.11701 | -73.28738 | 19939 ft | 404 kts | 225° |
| 2026-05-05 19:33 | 40.09616 | -73.31218 | 19945 ft | 404 kts | 225° |
| 2026-05-05 19:34 | 40.07536 | -73.33690 | 19950 ft | 404 kts | 225° |
| 2026-05-05 19:34 | 40.05451 | -73.36166 | 19950 ft | 405 kts | 225° |
| 2026-05-05 19:34 | 40.03390 | -73.38611 | 19945 ft | 404 kts | 225° |
| 2026-05-05 19:35 | 39.99213 | -73.43559 | 19943 ft | 405 kts | 225° |
| 2026-05-05 19:35 | 39.97126 | -73.46027 | 19953 ft | 405 kts | 225° |
| 2026-05-05 19:35 | 39.95038 | -73.48496 | 19952 ft | 405 kts | 225° |
| 2026-05-05 19:35 | 39.92968 | -73.50941 | 19946 ft | 405 kts | 225° |
| 2026-05-05 19:36 | 39.90906 | -73.53445 | 19939 ft | 404 kts | 228° |
| 2026-05-05 19:36 | 39.89007 | -73.56140 | 19948 ft | 403 kts | 231° |
| 2026-05-05 19:36 | 39.87182 | -73.58911 | 19951 ft | 403 kts | 232° |
| 2026-05-05 19:36 | 39.85397 | -73.61719 | 19845 ft | 400 kts | 233° |
| 2026-05-05 19:37 | 39.83644 | -73.64520 | 19456 ft | 399 kts | 233° |
| 2026-05-05 19:37 | 39.81898 | -73.67325 | 18998 ft | 399 kts | 233° |
| 2026-05-05 19:37 | 39.80152 | -73.70125 | 18521 ft | 397 kts | 233° |
| 2026-05-05 19:37 | 39.78413 | -73.72899 | 18103 ft | 394 kts | 233° |
| 2026-05-05 19:38 | 39.76705 | -73.75613 | 17711 ft | 391 kts | 232° |
| 2026-05-05 19:38 | 39.74979 | -73.78345 | 17313 ft | 389 kts | 233° |
| 2026-05-05 19:38 | 39.73264 | -73.81052 | 16900 ft | 386 kts | 233° |
| 2026-05-05 19:38 | 39.71562 | -73.83737 | 16516 ft | 383 kts | 233° |
| 2026-05-05 19:39 | 39.69874 | -73.86396 | 16130 ft | 379 kts | 233° |
| 2026-05-05 19:39 | 39.68200 | -73.89031 | 15736 ft | 376 kts | 233° |
| 2026-05-05 19:39 | 39.66560 | -73.91611 | 15375 ft | 373 kts | 233° |
| 2026-05-05 19:39 | 39.64907 | -73.94208 | 15005 ft | 370 kts | 233° |
| 2026-05-05 19:40 | 39.63272 | -73.96777 | 14646 ft | 367 kts | 233° |
| 2026-05-05 19:40 | 39.61652 | -73.99320 | 14347 ft | 364 kts | 233° |
| 2026-05-05 19:40 | 39.60045 | -74.01841 | 14116 ft | 361 kts | 233° |
| 2026-05-05 19:40 | 39.58467 | -74.04314 | 14052 ft | 359 kts | 233° |
| 2026-05-05 19:41 | 39.56871 | -74.06813 | 14049 ft | 359 kts | 233° |
| 2026-05-05 19:41 | 39.55278 | -74.09308 | 14042 ft | 359 kts | 233° |
| 2026-05-05 19:41 | 39.53868 | -74.11954 | 14053 ft | 356 kts | 242° |
| 2026-05-05 19:41 | 39.52907 | -74.14906 | 14053 ft | 355 kts | 254° |
| 2026-05-05 19:42 | 39.52520 | -74.18030 | 14051 ft | 355 kts | 266° |
| 2026-05-05 19:42 | 39.52496 | -74.21236 | 14052 ft | 356 kts | 269° |
| 2026-05-05 19:42 | 39.52553 | -74.24448 | 14050 ft | 356 kts | 270° |
| 2026-05-05 19:42 | 39.52621 | -74.27664 | 14050 ft | 357 kts | 270° |
| 2026-05-05 19:43 | 39.52688 | -74.30890 | 13867 ft | 357 kts | 270° |
| 2026-05-05 19:43 | 39.52752 | -74.34047 | 13386 ft | 351 kts | 270° |
| 2026-05-05 19:43 | 39.52813 | -74.37174 | 12883 ft | 339 kts | 270° |
| 2026-05-05 19:43 | 39.52871 | -74.40144 | 12330 ft | 320 kts | 269° |
| 2026-05-05 19:44 | 39.52925 | -74.42972 | 11710 ft | 307 kts | 269° |
| 2026-05-05 19:44 | 39.52975 | -74.45686 | 11088 ft | 295 kts | 268° |
| 2026-05-05 19:44 | 39.53021 | -74.48272 | 10493 ft | 285 kts | 268° |
| 2026-05-05 19:44 | 39.53066 | -74.50806 | 9898 ft | 277 kts | 268° |
| 2026-05-05 19:45 | 39.53108 | -74.53267 | 9274 ft | 268 kts | 268° |
| 2026-05-05 19:45 | 39.53382 | -74.55609 | 8702 ft | 268 kts | 285° |
| 2026-05-05 19:45 | 39.54455 | -74.57595 | 8243 ft | 276 kts | 311° |
| 2026-05-05 19:45 | 39.56106 | -74.58873 | 8063 ft | 278 kts | 326° |
| 2026-05-05 19:46 | 39.57900 | -74.59883 | 8051 ft | 281 kts | 328° |
| 2026-05-05 19:46 | 39.59710 | -74.60869 | 8053 ft | 283 kts | 327° |
| 2026-05-05 19:46 | 39.61530 | -74.61858 | 8048 ft | 283 kts | 328° |
| 2026-05-05 19:46 | 39.63328 | -74.62828 | 8042 ft | 282 kts | 328° |
| 2026-05-05 19:47 | 39.65141 | -74.63804 | 8039 ft | 282 kts | 328° |
| 2026-05-05 19:47 | 39.66956 | -74.64780 | 8037 ft | 282 kts | 328° |
| 2026-05-05 19:47 | 39.68771 | -74.65757 | 7918 ft | 282 kts | 328° |
| 2026-05-05 19:47 | 39.70591 | -74.66738 | 7600 ft | 282 kts | 328° |
| 2026-05-05 19:48 | 39.72393 | -74.67724 | 7205 ft | 278 kts | 325° |
| 2026-05-05 19:48 | 39.73962 | -74.69038 | 6844 ft | 266 kts | 311° |
| 2026-05-05 19:48 | 39.75337 | -74.70616 | 6521 ft | 262 kts | 308° |
| 2026-05-05 19:48 | 39.76674 | -74.72224 | 6234 ft | 261 kts | 308° |
| 2026-05-05 19:49 | 39.78001 | -74.73837 | 5958 ft | 261 kts | 308° |
| 2026-05-05 19:49 | 39.78874 | -74.74914 | 5791 ft | 262 kts | 308° |
| 2026-05-05 19:49 | 39.80638 | -74.77112 | 5456 ft | 263 kts | 308° |
| 2026-05-05 19:49 | 39.81944 | -74.78740 | 5206 ft | 263 kts | 308° |
| 2026-05-05 19:50 | 39.83285 | -74.80423 | 4952 ft | 271 kts | 308° |
| 2026-05-05 19:50 | 39.84659 | -74.82213 | 4750 ft | 294 kts | 308° |
| 2026-05-05 19:50 | 39.86180 | -74.84250 | 4447 ft | 329 kts | 308° |
| 2026-05-05 19:50 | 39.87804 | -74.86453 | 4086 ft | 340 kts | 308° |
| 2026-05-05 19:51 | 39.89414 | -74.88654 | 3737 ft | 330 kts | 308° |
| 2026-05-05 19:51 | 39.90948 | -74.90771 | 3406 ft | 320 kts | 308° |
| 2026-05-05 19:51 | 39.92453 | -74.92851 | 3141 ft | 309 kts | 308° |
| 2026-05-05 19:51 | 39.93434 | -74.95187 | 3005 ft | 283 kts | 277° |
| 2026-05-05 19:52 | 39.93310 | -74.97595 | 2989 ft | 257 kts | 246° |
| 2026-05-05 19:52 | 39.92539 | -74.99603 | 2981 ft | 239 kts | 239° |
| 2026-05-05 19:52 | 39.91807 | -75.01484 | 2987 ft | 225 kts | 243° |
| 2026-05-05 19:52 | 39.91277 | -75.03349 | 2911 ft | 216 kts | 248° |
| 2026-05-05 19:53 | 39.90909 | -75.05223 | 2680 ft | 210 kts | 251° |
| 2026-05-05 19:53 | 39.90566 | -75.07018 | 2363 ft | 203 kts | 251° |
| 2026-05-05 19:53 | 39.90211 | -75.08757 | 2080 ft | 193 kts | 251° |
| 2026-05-05 19:53 | 39.89883 | -75.10400 | 1826 ft | 180 kts | 250° |
| 2026-05-05 19:54 | 39.89583 | -75.11920 | 1609 ft | 167 kts | 250° |
| 2026-05-05 19:54 | 39.89302 | -75.13331 | 1387 ft | 154 kts | 249° |
| 2026-05-05 19:54 | 39.89047 | -75.14611 | 1205 ft | 139 kts | 250° |
| 2026-05-05 19:54 | 39.88832 | -75.15790 | 1004 ft | 132 kts | 248° |
| 2026-05-05 19:55 | 39.88621 | -75.16926 | 823 ft | 127 kts | 248° |
| 2026-05-05 19:55 | 39.88368 | -75.18048 | 677 ft | 131 kts | 248° |
| 2026-05-05 19:55 | 39.88154 | -75.19194 | 534 ft | 131 kts | 252° |
| 2026-05-05 19:55 | 39.87917 | -75.20356 | 373 ft | 133 kts | 250° |
| 2026-05-05 19:56 | 39.87685 | -75.21507 | 166 ft | 128 kts | 250° |
| 2026-05-05 19:56 | 39.87542 | -75.22240 | 83 ft | 125 kts | 249° |
| 2026-05-05 19:56 | 39.87328 | -75.23269 | 23 ft | 101 kts | 254° |
| 2026-05-05 19:56 | 39.87179 | -75.24024 | 26 ft | 40 kts | 255° |
| 2026-05-05 19:57 | 39.87161 | -75.24250 | 29 ft | 8 kts | 274° |
| 2026-05-05 19:57 | 39.87164 | -75.24302 | 27 ft | 9 kts | 276° |
| 2026-05-05 19:57 | 39.87178 | -75.24382 | 28 ft | 10 kts | 286° |
| 2026-05-05 19:57 | 39.87200 | -75.24480 | 26 ft | 12 kts | 290° |
| 2026-05-05 19:58 | 39.87247 | -75.24560 | 26 ft | 6 kts | 285° |
| 2026-05-05 19:58 | 39.87240 | -75.24631 | 23 ft | 13 kts | 258° |
| 2026-05-05 19:58 | 39.87212 | -75.24779 | 26 ft | 18 kts | 255° |
| 2026-05-05 19:58 | 39.87189 | -75.24895 | 26 ft | 6 kts | 261° |
| 2026-05-05 19:59 | 39.87216 | -75.24960 | 26 ft | 10 kts | 326° |
| 2026-05-05 19:59 | 39.87280 | -75.24988 | 25 ft | 10 kts | 345° |
| 2026-05-05 19:59 | 39.87342 | -75.25014 | 26 ft | 7 kts | 337° |
| 2026-05-05 19:59 | 39.87387 | -75.25040 | 27 ft | 8 kts | 335° |
| 2026-05-05 20:00 | 39.87398 | -75.25046 | 23 ft | 0 kts | 335° |